createdAt,value
2024-03-09T00:00:22.696Z,11.73
2024-03-09T00:02:51.541Z,11.32
2024-03-09T00:05:20.532Z,11.32
2024-03-09T00:07:48.771Z,11.23
2024-03-09T00:10:17.350Z,11.63
2024-03-09T00:12:45.328Z,11.52
2024-03-09T00:15:14.532Z,10.80
2024-03-09T00:17:43.971Z,12.00
2024-03-09T00:20:16.559Z,11.67
2024-03-09T00:22:46.294Z,11.85
2024-03-09T00:25:14.013Z,12.13
2024-03-09T00:27:42.151Z,11.77
2024-03-09T00:30:14.654Z,11.02
2024-03-09T00:32:43.711Z,11.20
2024-03-09T00:35:11.520Z,11.38
2024-03-09T00:37:39.180Z,11.55
2024-03-09T00:40:09.622Z,11.18
2024-03-09T00:42:37.615Z,10.90
2024-03-09T00:45:06.098Z,11.93
2024-03-09T00:47:35.865Z,11.52
2024-03-09T00:50:06.054Z,11.52
2024-03-09T00:52:33.930Z,11.40
2024-03-09T00:55:01.653Z,11.68
2024-03-09T00:57:29.593Z,11.87
2024-03-09T00:59:57.228Z,12.35
2024-03-09T01:02:24.991Z,12.00
2024-03-09T01:04:52.607Z,11.45
2024-03-09T01:07:23.357Z,11.55
2024-03-09T01:09:51.012Z,10.40
2024-03-09T01:12:19.367Z,10.95
2024-03-09T01:14:49.204Z,11.43
2024-03-09T01:17:22.050Z,11.13
2024-03-09T01:19:50.749Z,12.10
2024-03-09T01:22:18.580Z,11.10
2024-03-09T01:24:47.652Z,11.13
2024-03-09T01:27:16.379Z,11.45
2024-03-09T01:29:48.147Z,11.57
2024-03-09T01:32:16.378Z,11.50
2024-03-09T01:34:44.516Z,11.53
2024-03-09T01:37:12.331Z,11.82
2024-03-09T01:39:40.287Z,11.55
2024-03-09T01:42:12.354Z,11.68
2024-03-09T01:44:40.498Z,12.02
2024-03-09T01:47:10.413Z,11.67
2024-03-09T01:49:39.283Z,11.15
2024-03-09T01:52:08.611Z,12.00
2024-03-09T01:54:41.204Z,11.75
2024-03-09T01:57:14.744Z,11.90
2024-03-09T01:59:43.772Z,10.90
2024-03-09T02:02:11.905Z,12.40
2024-03-09T02:04:40.412Z,12.40
2024-03-09T02:07:08.957Z,13.35
2024-03-09T02:09:35.706Z,12.27
2024-03-09T02:12:07.542Z,12.87
2024-03-09T02:14:37.823Z,12.63
2024-03-09T02:17:09.921Z,12.77
2024-03-09T02:19:38.094Z,13.18
2024-03-09T02:22:07.298Z,12.50
2024-03-09T02:24:41.808Z,11.97
2024-03-09T02:27:11.650Z,11.90
2024-03-09T02:29:40.438Z,12.55
2024-03-09T02:32:09.327Z,12.70
2024-03-09T02:34:37.659Z,12.48
2024-03-09T02:37:05.481Z,11.93
2024-03-09T02:39:33.983Z,12.45
2024-03-09T02:42:01.628Z,12.70
2024-03-09T02:44:30.652Z,13.00
2024-03-09T02:46:58.967Z,11.77
2024-03-09T02:49:26.688Z,12.23
2024-03-09T02:51:54.397Z,13.40
2024-03-09T02:54:22.024Z,11.95
2024-03-09T02:56:50.820Z,11.75
2024-03-09T02:59:19.456Z,12.20
2024-03-09T03:01:48.630Z,12.87
2024-03-09T03:04:16.098Z,13.55
2024-03-09T03:06:44.402Z,13.00
2024-03-09T03:09:14.606Z,13.50
2024-03-09T03:11:42.443Z,13.63
2024-03-09T03:14:11.042Z,12.87
2024-03-09T03:16:39.173Z,12.43
2024-03-09T03:19:10.487Z,13.02
2024-03-09T03:21:41.102Z,13.45
2024-03-09T03:24:10.052Z,12.65
2024-03-09T03:26:37.716Z,13.10
2024-03-09T03:29:05.726Z,12.63
2024-03-09T03:31:33.765Z,13.50
2024-03-09T03:34:01.927Z,13.18
2024-03-09T03:36:33.188Z,13.57
2024-03-09T03:39:04.038Z,13.30
2024-03-09T03:41:31.745Z,13.75
2024-03-09T03:43:59.810Z,12.82
2024-03-09T03:46:27.623Z,12.52
2024-03-09T03:48:56.447Z,14.35
2024-03-09T03:51:24.113Z,12.30
2024-03-09T03:53:53.019Z,13.13
2024-03-09T03:56:25.489Z,13.13
2024-03-09T03:58:54.926Z,13.93
2024-03-09T04:01:24.684Z,13.73
2024-03-09T04:03:52.367Z,13.83
2024-03-09T04:06:20.466Z,12.40
2024-03-09T04:08:48.187Z,13.68
2024-03-09T04:11:18.090Z,13.93
2024-03-09T04:13:45.842Z,14.25
2024-03-09T04:16:15.640Z,13.67
2024-03-09T04:18:43.268Z,13.25
2024-03-09T04:21:13.914Z,13.80
2024-03-09T04:23:44.037Z,13.82
2024-03-09T04:26:12.693Z,13.68
2024-03-09T04:28:44.258Z,13.33
2024-03-09T04:31:12.038Z,12.93
2024-03-09T04:33:41.214Z,13.73
2024-03-09T04:36:12.022Z,13.88
2024-03-09T04:38:39.657Z,13.00
2024-03-09T04:41:07.744Z,13.33
2024-03-09T04:43:39.285Z,14.20
2024-03-09T04:46:08.944Z,13.77
2024-03-09T04:48:36.783Z,14.07
2024-03-09T04:51:04.646Z,13.68
2024-03-09T04:53:32.259Z,14.13
2024-03-09T04:56:02.174Z,13.82
2024-03-09T04:58:30.313Z,14.45
2024-03-09T05:00:58.178Z,13.90
2024-03-09T05:03:28.199Z,14.07
2024-03-09T05:05:56.380Z,14.13
2024-03-09T05:08:23.951Z,14.93
2024-03-09T05:10:51.702Z,14.20
2024-03-09T05:13:19.383Z,15.70
2024-03-09T05:15:49.865Z,14.75
2024-03-09T05:18:17.607Z,14.87
2024-03-09T05:20:48.202Z,14.07
2024-03-09T05:23:16.920Z,14.55
2024-03-09T05:25:45.638Z,14.73
2024-03-09T05:28:14.444Z,14.52
2024-03-09T05:30:44.517Z,14.67
2024-03-09T05:33:13.285Z,15.30
2024-03-09T05:35:41.380Z,15.50
2024-03-09T05:38:11.186Z,14.23
2024-03-09T05:40:39.605Z,15.23
2024-03-09T05:43:10.248Z,15.50
2024-03-09T05:45:38.620Z,15.90
2024-03-09T05:48:09.285Z,14.90
2024-03-09T05:50:38.735Z,13.75
2024-03-09T05:53:06.969Z,15.25
2024-03-09T05:55:37.055Z,14.67
2024-03-09T05:58:08.384Z,15.85
2024-03-09T06:00:37.150Z,14.98
2024-03-09T06:03:07.752Z,16.02
2024-03-09T06:05:35.439Z,14.88
2024-03-09T06:08:04.351Z,14.40
2024-03-09T06:10:36.321Z,16.77
2024-03-09T06:13:07.619Z,15.60
2024-03-09T06:15:35.227Z,15.52
2024-03-09T06:18:03.058Z,15.48
2024-03-09T06:20:33.421Z,16.10
2024-03-09T06:23:01.547Z,15.95
2024-03-09T06:25:30.886Z,16.15
2024-03-09T06:28:01.219Z,15.43
2024-03-09T06:30:32.396Z,16.05
2024-03-09T06:33:03.242Z,15.52
2024-03-09T06:35:32.981Z,15.63
2024-03-09T06:38:02.763Z,14.23
2024-03-09T06:40:32.344Z,16.85
2024-03-09T06:43:00.890Z,16.73
2024-03-09T06:45:30.096Z,16.43
2024-03-09T06:47:59.748Z,16.52
2024-03-09T06:50:28.282Z,15.20
2024-03-09T06:52:56.445Z,16.65
2024-03-09T06:55:26.164Z,15.77
2024-03-09T06:57:54.255Z,15.33
2024-03-09T07:00:22.890Z,15.32
2024-03-09T07:02:54.899Z,16.42
2024-03-09T07:05:22.970Z,16.83
2024-03-09T07:07:50.754Z,17.25
2024-03-09T07:10:18.809Z,16.93
2024-03-09T07:12:46.713Z,17.42
2024-03-09T07:15:17.255Z,15.05
2024-03-09T07:17:46.482Z,16.15
2024-03-09T07:20:17.614Z,17.17
2024-03-09T07:22:49.409Z,16.03
2024-03-09T07:25:18.646Z,17.20
2024-03-09T07:27:49.279Z,16.05
2024-03-09T07:30:17.029Z,15.85
2024-03-09T07:32:45.316Z,16.20
2024-03-09T07:35:17.688Z,16.50
2024-03-09T07:37:46.874Z,15.50
2024-03-09T07:40:15.582Z,16.58
2024-03-09T07:42:43.315Z,16.65
2024-03-09T07:45:15.060Z,16.20
2024-03-09T07:47:45.004Z,16.50
2024-03-09T07:50:18.184Z,16.55
2024-03-09T07:52:48.510Z,16.65
2024-03-09T07:55:18.702Z,16.30
2024-03-09T07:57:46.660Z,16.13
2024-03-09T08:00:18.727Z,17.80
2024-03-09T08:02:47.707Z,16.20
2024-03-09T08:05:17.795Z,17.77
2024-03-09T08:07:45.865Z,15.95
2024-03-09T08:10:14.814Z,15.52
2024-03-09T08:12:42.498Z,16.07
2024-03-09T08:15:12.652Z,16.05
2024-03-09T08:17:40.415Z,17.63
2024-03-09T08:20:09.535Z,16.25
2024-03-09T08:22:40.960Z,16.73
2024-03-09T08:25:09.948Z,16.77
2024-03-09T08:27:39.276Z,15.50
2024-03-09T08:30:08.016Z,15.95
2024-03-09T08:32:36.599Z,17.15
2024-03-09T08:35:09.930Z,15.95
2024-03-09T08:37:42.260Z,15.60
2024-03-09T08:40:10.935Z,15.80
2024-03-09T08:42:38.577Z,16.30
2024-03-09T08:45:08.099Z,15.95
2024-03-09T08:47:35.847Z,15.88
2024-03-09T08:50:03.759Z,15.97
2024-03-09T08:52:33.334Z,15.93
2024-03-09T08:55:02.276Z,15.65
2024-03-09T08:57:30.142Z,15.55
2024-03-09T09:00:00.650Z,15.90
2024-03-09T09:02:28.676Z,14.47
2024-03-09T09:04:56.901Z,15.05
2024-03-09T09:07:24.657Z,14.95
2024-03-09T09:09:53.495Z,15.18
2024-03-09T09:12:22.496Z,14.70
2024-03-09T09:14:50.217Z,14.70
2024-03-09T09:17:18.022Z,14.40
2024-03-09T09:19:45.704Z,14.90
2024-03-09T09:22:13.900Z,14.82
2024-03-09T09:24:41.553Z,14.02
2024-03-09T09:27:10.796Z,14.87
2024-03-09T09:29:39.791Z,14.50
2024-03-09T09:32:08.086Z,14.90
2024-03-09T09:34:35.720Z,15.70
2024-03-09T09:37:03.350Z,14.13
2024-03-09T09:39:34.115Z,14.47
2024-03-09T09:42:02.468Z,15.13
2024-03-09T09:44:30.126Z,14.55
2024-03-09T09:47:00.031Z,14.52
2024-03-09T09:49:28.344Z,14.98
2024-03-09T09:51:58.150Z,14.03
2024-03-09T09:54:28.064Z,14.55
2024-03-09T09:56:57.472Z,14.75
2024-03-09T09:59:25.752Z,14.25
2024-03-09T10:01:53.879Z,15.27
2024-03-09T10:04:22.958Z,14.97
2024-03-09T10:06:51.157Z,14.10
2024-03-09T10:09:28.760Z,14.20
2024-03-09T10:11:56.674Z,13.65
2024-03-09T10:14:29.209Z,12.75
2024-03-09T10:16:56.621Z,14.33
2024-03-09T10:19:25.591Z,14.18
2024-03-09T10:21:53.814Z,13.73
2024-03-09T10:24:21.429Z,13.07
2024-03-09T10:26:48.981Z,12.77
2024-03-09T10:29:16.781Z,13.40
2024-03-09T10:31:44.825Z,13.25
2024-03-09T10:34:12.405Z,12.40
2024-03-09T10:36:41.511Z,12.60
2024-03-09T10:39:11.278Z,11.98
2024-03-09T10:41:41.264Z,11.33
2024-03-09T10:44:08.950Z,12.45
2024-03-09T10:46:39.455Z,12.65
2024-03-09T10:49:12.786Z,13.40
2024-03-09T10:51:47.056Z,12.40
2024-03-09T10:54:20.571Z,12.60
2024-03-09T10:56:55.540Z,12.40
2024-03-09T10:59:24.044Z,12.52
2024-03-09T11:01:53.500Z,14.43
2024-03-09T11:04:22.246Z,12.98
2024-03-09T11:06:51.445Z,12.43
2024-03-09T11:09:30.561Z,11.88
2024-03-09T11:12:00.823Z,12.75
2024-03-09T11:14:29.057Z,11.32
2024-03-09T11:16:58.014Z,11.90
2024-03-09T11:19:28.046Z,12.77
2024-03-09T11:21:58.386Z,12.77
2024-03-09T11:24:30.265Z,12.32
2024-03-09T11:26:59.562Z,12.80
2024-03-09T11:29:30.164Z,12.40
2024-03-09T11:31:59.469Z,11.87
2024-03-09T11:34:27.561Z,12.90
2024-03-09T11:37:00.193Z,12.50
2024-03-09T11:39:30.896Z,12.55
2024-03-09T11:42:01.626Z,11.13
2024-03-09T11:44:31.819Z,11.53
2024-03-09T11:46:59.592Z,10.70
2024-03-09T11:49:29.152Z,10.52
2024-03-09T11:51:59.192Z,10.75
2024-03-09T11:54:28.547Z,10.88
2024-03-09T11:56:57.815Z,9.30
2024-03-09T11:59:26.789Z,9.95
2024-03-09T12:02:00.020Z,10.02
2024-03-09T12:04:28.529Z,9.48
2024-03-09T12:06:56.110Z,9.55
2024-03-09T12:09:25.355Z,10.07
2024-03-09T12:11:53.068Z,9.85
2024-03-09T12:14:20.789Z,9.45
2024-03-09T12:16:51.079Z,9.88
2024-03-09T12:19:19.426Z,9.52
2024-03-09T12:21:47.619Z,9.60
2024-03-09T12:24:15.844Z,9.98
2024-03-09T12:26:45.199Z,9.90
2024-03-09T12:29:14.677Z,9.95
2024-03-09T12:31:43.825Z,10.15
2024-03-09T12:34:12.853Z,10.13
2024-03-09T12:36:51.300Z,10.43
2024-03-09T12:39:19.377Z,10.07
2024-03-09T12:41:52.360Z,10.10
2024-03-09T12:44:20.402Z,10.27
2024-03-09T12:46:48.684Z,11.70
2024-03-09T12:49:16.803Z,10.73
2024-03-09T12:51:51.332Z,10.73
2024-03-09T12:54:20.737Z,10.70
2024-03-09T12:56:50.354Z,11.05
2024-03-09T12:59:24.911Z,11.37
2024-03-09T13:01:53.155Z,11.75
2024-03-09T13:04:25.626Z,10.90
2024-03-09T13:06:54.647Z,10.68
2024-03-09T13:09:22.248Z,10.57
2024-03-09T13:11:50.301Z,10.83
2024-03-09T13:14:21.801Z,11.15
2024-03-09T13:16:51.321Z,10.48
2024-03-09T13:19:19.599Z,10.75
2024-03-09T13:21:52.579Z,11.90
2024-03-09T13:24:23.441Z,11.30
2024-03-09T13:26:53.008Z,11.73
2024-03-09T13:29:28.732Z,12.02
2024-03-09T13:31:58.272Z,11.50
2024-03-09T13:34:26.538Z,11.02
2024-03-09T13:36:55.086Z,12.10
2024-03-09T13:39:29.019Z,11.35
2024-03-09T13:41:57.305Z,11.85
2024-03-09T13:44:25.659Z,10.93
2024-03-09T13:46:54.075Z,11.77
2024-03-09T13:49:23.340Z,11.20
2024-03-09T13:51:50.915Z,12.15
2024-03-09T13:54:19.808Z,12.13
2024-03-09T13:56:47.992Z,12.32
2024-03-09T13:59:16.833Z,11.70
2024-03-09T14:01:45.571Z,12.10
2024-03-09T14:04:14.491Z,12.10
2024-03-09T14:06:57.148Z,11.77
2024-03-09T14:09:33.500Z,10.95
2024-03-09T14:12:01.914Z,10.38
2024-03-09T14:14:30.072Z,11.67
2024-03-09T14:16:58.238Z,11.13
2024-03-09T14:19:25.936Z,11.35
2024-03-09T14:21:54.853Z,11.13
2024-03-09T14:24:23.170Z,10.48
2024-03-09T14:26:50.743Z,10.97
2024-03-09T14:29:21.570Z,11.18
2024-03-09T14:31:50.621Z,10.38
2024-03-09T14:34:19.943Z,10.32
2024-03-09T14:36:48.655Z,10.20
2024-03-09T14:39:18.685Z,9.70
2024-03-09T14:41:46.490Z,9.90
2024-03-09T14:44:14.712Z,10.57
2024-03-09T14:46:42.618Z,11.68
2024-03-09T14:49:10.592Z,11.30
2024-03-09T14:51:38.574Z,10.77
2024-03-09T14:54:06.575Z,10.90
2024-03-09T14:56:35.629Z,11.70
2024-03-09T14:59:11.630Z,11.68
2024-03-09T15:01:38.518Z,11.57
2024-03-09T15:04:09.018Z,12.27
2024-03-09T15:06:37.452Z,11.48
2024-03-09T15:09:09.042Z,12.13
2024-03-09T15:11:38.473Z,12.55
2024-03-09T15:14:06.484Z,12.15
2024-03-09T15:16:35.277Z,12.50
2024-03-09T15:19:05.101Z,12.13
2024-03-09T15:21:32.672Z,12.48
2024-03-09T15:24:01.354Z,12.32
2024-03-09T15:26:32.035Z,12.50
2024-03-09T15:29:02.515Z,11.90
2024-03-09T15:31:30.526Z,12.77
2024-03-09T15:33:58.822Z,13.48
2024-03-09T15:36:26.562Z,12.63
2024-03-09T15:38:55.284Z,12.45
2024-03-09T15:41:23.329Z,13.20
2024-03-09T15:43:51.165Z,14.18
2024-03-09T15:46:20.807Z,13.32
2024-03-09T15:48:49.396Z,13.73
2024-03-09T15:51:19.150Z,13.85
2024-03-09T15:53:47.201Z,13.53
2024-03-09T15:56:20.357Z,13.93
2024-03-09T15:58:48.471Z,13.23
2024-03-09T16:01:22.544Z,13.65
2024-03-09T16:03:52.510Z,14.32
2024-03-09T16:06:20.113Z,14.27
2024-03-09T16:08:48.056Z,14.10
2024-03-09T16:11:15.722Z,15.00
2024-03-09T16:13:43.396Z,14.00
2024-03-09T16:16:14.551Z,14.27
2024-03-09T16:18:42.920Z,13.40
2024-03-09T16:21:11.845Z,15.05
2024-03-09T16:23:44.937Z,15.10
2024-03-09T16:26:12.849Z,15.48
2024-03-09T16:28:40.606Z,14.80
2024-03-09T16:31:12.181Z,15.43
2024-03-09T16:33:40.735Z,15.48
2024-03-09T16:36:10.935Z,15.40
2024-03-09T16:38:39.993Z,17.45
2024-03-09T16:41:09.962Z,17.35
2024-03-09T16:43:39.777Z,19.37
2024-03-09T16:46:08.829Z,18.65
2024-03-09T16:48:37.154Z,19.00
2024-03-09T16:51:07.864Z,19.15
2024-03-09T16:53:38.308Z,19.05
2024-03-09T16:56:07.869Z,18.10
2024-03-09T16:58:35.510Z,19.48
2024-03-09T17:01:05.586Z,20.95
2024-03-09T17:03:35.141Z,19.27
2024-03-09T17:06:03.710Z,19.70
2024-03-09T17:08:31.569Z,19.57
2024-03-09T17:10:59.579Z,19.75
2024-03-09T17:13:28.845Z,19.10
2024-03-09T17:15:59.709Z,19.13
2024-03-09T17:18:28.995Z,19.02
2024-03-09T17:20:56.650Z,19.10
2024-03-09T17:23:28.597Z,19.15
2024-03-09T17:25:56.353Z,19.30
2024-03-09T17:28:23.983Z,20.98
2024-03-09T17:30:52.906Z,22.30
2024-03-09T17:33:21.825Z,22.83
2024-03-09T17:35:49.590Z,19.90
2024-03-09T17:38:21.216Z,19.42
2024-03-09T17:40:49.295Z,19.20
2024-03-09T17:43:17.390Z,19.17
2024-03-09T17:45:46.621Z,19.10
2024-03-09T17:48:16.453Z,18.75
2024-03-09T17:50:44.248Z,26.83
2024-03-09T17:53:13.159Z,19.70
2024-03-09T17:55:40.813Z,19.92
2024-03-09T17:58:10.143Z,19.57
2024-03-09T18:00:38.774Z,20.10
2024-03-09T18:03:08.852Z,19.58
2024-03-09T18:05:39.094Z,19.30
2024-03-09T18:08:11.125Z,19.30
2024-03-09T18:10:41.751Z,19.80
2024-03-09T18:13:11.239Z,19.52
2024-03-09T18:15:39.293Z,19.63
2024-03-09T18:18:11.492Z,19.65
2024-03-09T18:20:42.117Z,19.08
2024-03-09T18:23:10.114Z,19.83
2024-03-09T18:25:37.840Z,20.08
2024-03-09T18:28:07.158Z,18.95
2024-03-09T18:30:35.859Z,18.88
2024-03-09T18:33:03.750Z,19.17
2024-03-09T18:35:34.479Z,18.33
2024-03-09T18:38:05.209Z,20.23
2024-03-09T18:40:33.031Z,19.58
2024-03-09T18:43:00.993Z,19.83
2024-03-09T18:45:30.015Z,20.08
2024-03-09T18:47:58.590Z,19.73
2024-03-09T18:50:27.324Z,20.10
2024-03-09T18:52:59.057Z,19.58
2024-03-09T18:55:29.154Z,19.08
2024-03-09T18:57:57.326Z,19.55
2024-03-09T19:00:30.270Z,19.13
2024-03-09T19:02:59.199Z,19.98
2024-03-09T19:05:27.281Z,19.88
2024-03-09T19:07:56.890Z,18.92
2024-03-09T19:10:25.480Z,19.73
2024-03-09T19:12:55.995Z,20.80
2024-03-09T19:15:26.697Z,20.95
2024-03-09T19:17:55.379Z,20.13
2024-03-09T19:20:25.910Z,20.50
2024-03-09T19:22:54.338Z,19.48
2024-03-09T19:25:22.900Z,19.33
2024-03-09T19:27:52.693Z,20.50
2024-03-09T19:30:24.176Z,20.10
2024-03-09T19:32:52.027Z,18.90
2024-03-09T19:35:22.267Z,19.60
2024-03-09T19:37:50.662Z,19.97
2024-03-09T19:40:21.251Z,20.52
2024-03-09T19:42:50.155Z,19.75
2024-03-09T19:45:20.038Z,21.35
2024-03-09T19:47:50.055Z,21.75
2024-03-09T19:50:18.215Z,21.57
2024-03-09T19:52:47.776Z,21.00
2024-03-09T19:55:16.452Z,20.15
2024-03-09T19:57:48.128Z,21.50
2024-03-09T20:00:19.586Z,20.67
2024-03-09T20:02:51.801Z,20.80
2024-03-09T20:05:21.681Z,19.23
2024-03-09T20:07:51.548Z,19.50
2024-03-09T20:10:20.821Z,20.05
2024-03-09T20:12:50.211Z,21.15
2024-03-09T20:15:19.541Z,20.43
2024-03-09T20:17:47.942Z,19.20
2024-03-09T20:20:17.381Z,20.58
2024-03-09T20:22:45.110Z,20.23
2024-03-09T20:25:13.482Z,20.95
2024-03-09T20:27:43.778Z,20.47
2024-03-09T20:30:12.616Z,20.83
2024-03-09T20:32:40.970Z,20.75
2024-03-09T20:35:12.010Z,20.08
2024-03-09T20:37:41.176Z,19.95
2024-03-09T20:40:14.230Z,19.60
2024-03-09T20:42:44.587Z,20.35
2024-03-09T20:45:14.678Z,21.95
2024-03-09T20:47:43.388Z,21.08
2024-03-09T20:50:14.176Z,21.13
2024-03-09T20:52:44.837Z,20.60
2024-03-09T20:55:12.612Z,21.52
2024-03-09T20:57:40.313Z,20.27
2024-03-09T21:00:11.175Z,21.33
2024-03-09T21:02:40.489Z,20.70
2024-03-09T21:05:09.495Z,20.17
2024-03-09T21:07:37.616Z,20.50
2024-03-09T21:10:07.120Z,21.45
2024-03-09T21:12:35.036Z,20.50
2024-03-09T21:15:02.803Z,20.20
2024-03-09T21:17:30.600Z,20.30
2024-03-09T21:19:58.437Z,19.60
2024-03-09T21:22:26.472Z,19.40
2024-03-09T21:24:54.118Z,20.33
2024-03-09T21:27:23.047Z,19.63
2024-03-09T21:29:51.333Z,21.20
2024-03-09T21:32:19.061Z,19.63
2024-03-09T21:34:46.759Z,19.30
2024-03-09T21:37:14.517Z,19.70
2024-03-09T21:39:42.526Z,20.63
2024-03-09T21:42:15.256Z,20.27
2024-03-09T21:44:44.603Z,19.65
2024-03-09T21:47:13.971Z,20.98
2024-03-09T21:49:42.247Z,19.08
2024-03-09T21:52:10.062Z,19.77
2024-03-09T21:54:39.724Z,21.37
2024-03-09T21:57:09.210Z,20.08
2024-03-09T21:59:37.696Z,19.85
2024-03-09T22:02:10.938Z,20.95
2024-03-09T22:04:40.404Z,20.27
2024-03-09T22:07:08.142Z,19.07
2024-03-09T22:09:35.786Z,19.95
2024-03-09T22:12:05.679Z,20.35
2024-03-09T22:14:33.379Z,19.98
2024-03-09T22:17:00.987Z,21.70
2024-03-09T22:19:30.190Z,21.87
2024-03-09T22:21:57.800Z,20.13
2024-03-09T22:24:26.145Z,20.15
2024-03-09T22:26:53.776Z,19.15
2024-03-09T22:29:21.480Z,19.17
2024-03-09T22:31:49.180Z,21.50
2024-03-09T22:34:16.788Z,21.17
2024-03-09T22:36:45.707Z,19.80
2024-03-09T22:39:13.434Z,21.50
2024-03-09T22:41:41.059Z,19.73
2024-03-09T22:44:08.873Z,20.47
2024-03-09T22:46:36.858Z,19.95
2024-03-09T22:49:05.929Z,19.35
2024-03-09T22:51:34.467Z,19.70
2024-03-09T22:54:03.542Z,19.33
2024-03-09T22:56:32.363Z,19.80
2024-03-09T22:58:59.947Z,19.92
2024-03-09T23:01:31.747Z,19.60
2024-03-09T23:03:59.390Z,20.88
2024-03-09T23:06:26.985Z,20.00
2024-03-09T23:08:55.601Z,19.47
2024-03-09T23:11:24.914Z,21.05
2024-03-09T23:13:52.874Z,20.20
2024-03-09T23:16:22.440Z,20.05
2024-03-09T23:18:50.054Z,20.10
2024-03-09T23:21:17.718Z,20.50
2024-03-09T23:23:45.576Z,19.52
2024-03-09T23:26:13.195Z,19.40
2024-03-09T23:28:42.383Z,20.38
2024-03-09T23:31:10.189Z,18.98
2024-03-09T23:33:37.771Z,20.30
2024-03-09T23:36:06.217Z,20.77
2024-03-09T23:38:35.086Z,19.70
2024-03-09T23:41:02.838Z,19.73
2024-03-09T23:43:30.466Z,19.58
2024-03-09T23:45:59.694Z,19.20
2024-03-09T23:48:27.879Z,19.75
2024-03-09T23:50:56.714Z,19.85
2024-03-09T23:53:24.405Z,19.98
2024-03-09T23:55:52.926Z,19.75
2024-03-09T23:58:21.266Z,20.10
